Salem, Indiana
Current Conditions -  °F | °C
As of 3:53 PM on Tuesday 25 Nov 2014 (Local Time) from KLOU Reporting Station
Clear Clear  
Wind Chill: 42°   Ceiling: Unl
Heat Index: 45°   Visibility: 10mi
Dew Point: 25°   Wind: 6mph
Humidity: 46%   Direction: 280°W
Pressure: 30.13"   Gusts: NA
Location:  38.61°N, 86.1°W
Report Text: KLOU 252053Z 28005KT 10SM CLR 07/M04 A3013 RMK AO2 SLP205 T00721039 55006
Loading
Personal Weather Stations






























Interactive Weather Map New forecast layout! Learn more

10-Day Weather Forecast

Advertisements
Track Severe Weather on mobile